createdAt,value
2016-10-29T00:00:55.709Z,982.84
2016-10-29T00:01:55.672Z,982.81
2016-10-29T00:02:55.634Z,982.85
2016-10-29T00:03:55.594Z,982.85
2016-10-29T00:04:55.555Z,982.82
2016-10-29T00:05:55.517Z,982.85
2016-10-29T00:06:55.481Z,982.88
2016-10-29T00:07:55.440Z,982.82
2016-10-29T00:08:55.402Z,982.82
2016-10-29T00:09:55.362Z,982.79
2016-10-29T00:10:55.325Z,982.76
2016-10-29T00:11:55.285Z,982.8
2016-10-29T00:12:55.248Z,982.72
2016-10-29T00:13:55.208Z,982.72
2016-10-29T00:14:55.169Z,982.75
2016-10-29T00:15:55.132Z,982.72
2016-10-29T00:16:55.093Z,982.73
2016-10-29T00:17:55.054Z,982.69
2016-10-29T00:18:55.015Z,982.7
2016-10-29T00:19:54.976Z,982.72
2016-10-29T00:20:54.937Z,982.72
2016-10-29T00:21:54.900Z,982.71
2016-10-29T00:22:54.862Z,982.74
2016-10-29T00:23:54.822Z,982.73
2016-10-29T00:24:54.786Z,982.71
2016-10-29T00:25:54.744Z,982.68
2016-10-29T00:26:54.706Z,982.67
2016-10-29T00:27:54.669Z,982.68
2016-10-29T00:28:54.631Z,982.62
2016-10-29T00:29:54.594Z,982.67
2016-10-29T00:30:54.552Z,982.62
2016-10-29T00:31:54.525Z,982.64
2016-10-29T00:32:54.475Z,982.61
2016-10-29T00:33:54.435Z,982.63
2016-10-29T00:34:54.401Z,982.63
2016-10-29T00:35:54.360Z,982.68
2016-10-29T00:36:54.320Z,982.65
2016-10-29T00:37:54.283Z,982.69
2016-10-29T00:38:54.243Z,982.64
2016-10-29T00:39:54.205Z,982.67
2016-10-29T00:40:54.166Z,982.67
2016-10-29T00:41:54.130Z,982.67
2016-10-29T00:42:54.090Z,982.69
2016-10-29T00:43:54.051Z,982.65
2016-10-29T00:44:54.013Z,982.7
2016-10-29T00:45:53.975Z,982.69
2016-10-29T00:46:53.937Z,982.69
2016-10-29T00:47:53.898Z,982.67
2016-10-29T00:48:53.858Z,982.69
2016-10-29T00:49:53.819Z,982.71
2016-10-29T00:50:53.781Z,982.69
2016-10-29T00:51:53.741Z,982.68
2016-10-29T00:52:53.704Z,982.69
2016-10-29T00:53:53.666Z,982.71
2016-10-29T00:54:53.628Z,982.7
2016-10-29T00:55:53.587Z,982.7
2016-10-29T00:56:53.551Z,982.73
2016-10-29T00:57:53.512Z,982.71
2016-10-29T00:58:53.473Z,982.73
2016-10-29T00:59:53.434Z,982.71
2016-10-29T01:00:53.395Z,982.74
2016-10-29T01:01:53.359Z,982.66
2016-10-29T01:02:53.319Z,982.68
2016-10-29T01:03:53.280Z,982.68
2016-10-29T01:04:53.244Z,982.68
2016-10-29T01:05:53.203Z,982.7
2016-10-29T01:06:53.165Z,982.71
2016-10-29T01:07:53.126Z,982.64
2016-10-29T01:08:53.087Z,982.65
2016-10-29T01:09:53.048Z,982.63
2016-10-29T01:10:53.010Z,982.64
2016-10-29T01:11:52.972Z,982.6
2016-10-29T01:12:52.934Z,982.63
2016-10-29T01:13:52.894Z,982.59
2016-10-29T01:14:52.855Z,982.55
2016-10-29T01:15:52.818Z,982.51
2016-10-29T01:16:52.779Z,982.46
2016-10-29T01:17:52.740Z,982.4
2016-10-29T01:18:52.701Z,982.35
2016-10-29T01:19:52.664Z,982.4
2016-10-29T01:20:52.624Z,982.37
2016-10-29T01:21:52.587Z,982.4
2016-10-29T01:22:52.548Z,982.4
2016-10-29T01:23:52.509Z,982.41
2016-10-29T01:24:52.472Z,982.44
2016-10-29T01:25:52.432Z,982.47
2016-10-29T01:26:52.394Z,982.48
2016-10-29T01:27:52.355Z,982.45
2016-10-29T01:28:52.316Z,982.53
2016-10-29T01:29:52.278Z,982.53
2016-10-29T01:30:52.240Z,982.53
2016-10-29T01:31:52.199Z,982.56
2016-10-29T01:32:52.162Z,982.56
2016-10-29T01:33:52.122Z,982.55
2016-10-29T01:34:52.086Z,982.53
2016-10-29T01:35:52.047Z,982.57
2016-10-29T01:36:52.010Z,982.51
2016-10-29T01:37:51.968Z,982.49
2016-10-29T01:38:51.932Z,982.52
2016-10-29T01:39:51.893Z,982.41
2016-10-29T01:40:51.855Z,982.46
2016-10-29T01:41:51.817Z,982.47
2016-10-29T01:42:51.778Z,982.45
2016-10-29T01:43:51.740Z,982.46
2016-10-29T01:44:51.701Z,982.45
2016-10-29T01:45:51.668Z,982.46
2016-10-29T01:46:51.623Z,982.48
2016-10-29T01:47:51.584Z,982.48
2016-10-29T01:48:51.546Z,982.46
2016-10-29T01:49:51.508Z,982.52
2016-10-29T01:50:51.468Z,982.51
2016-10-29T01:51:51.433Z,982.51
2016-10-29T01:52:51.395Z,982.5
2016-10-29T01:53:51.353Z,982.52
2016-10-29T01:54:51.316Z,982.49
2016-10-29T01:55:51.277Z,982.48
2016-10-29T01:56:51.238Z,982.46
2016-10-29T01:57:51.199Z,982.49
2016-10-29T01:58:51.161Z,982.51
2016-10-29T01:59:51.122Z,982.53
2016-10-29T02:00:51.082Z,982.57
2016-10-29T02:01:51.045Z,982.55
2016-10-29T02:02:51.006Z,982.6
2016-10-29T02:03:50.967Z,982.63
2016-10-29T02:04:50.929Z,982.61
2016-10-29T02:05:50.889Z,982.63
2016-10-29T02:06:50.852Z,982.68
2016-10-29T02:07:50.813Z,982.71
2016-10-29T02:08:50.774Z,982.66
2016-10-29T02:09:50.735Z,982.72
2016-10-29T02:10:50.697Z,982.71
2016-10-29T02:11:50.658Z,982.75
2016-10-29T02:12:50.620Z,982.69
2016-10-29T02:13:50.581Z,982.6
2016-10-29T02:14:50.544Z,982.54
2016-10-29T02:15:50.503Z,982.5
2016-10-29T02:16:50.465Z,982.52
2016-10-29T02:17:50.425Z,982.52
2016-10-29T02:18:50.389Z,982.56
2016-10-29T02:19:50.349Z,982.57
2016-10-29T02:20:50.310Z,982.57
2016-10-29T02:21:50.271Z,982.57
2016-10-29T02:22:50.233Z,982.6
2016-10-29T02:23:50.208Z,982.58
2016-10-29T02:24:50.156Z,982.57
2016-10-29T02:25:50.118Z,982.53
2016-10-29T02:26:50.078Z,982.46
2016-10-29T02:27:50.039Z,982.49
2016-10-29T02:28:50.001Z,982.5
2016-10-29T02:29:49.972Z,982.48
2016-10-29T02:30:49.924Z,982.47
2016-10-29T02:31:49.886Z,982.49
2016-10-29T02:32:49.846Z,982.44
2016-10-29T02:33:49.808Z,982.46
2016-10-29T02:34:49.769Z,982.46
2016-10-29T02:35:49.738Z,982.46
2016-10-29T02:36:49.692Z,982.46
2016-10-29T02:37:49.654Z,982.45
2016-10-29T02:38:49.615Z,982.47
2016-10-29T02:39:49.577Z,982.49
2016-10-29T02:40:49.539Z,982.49
2016-10-29T02:41:49.498Z,982.51
2016-10-29T02:42:49.460Z,982.49
2016-10-29T02:43:49.423Z,982.5
2016-10-29T02:44:49.384Z,982.55
2016-10-29T02:45:49.345Z,982.55
2016-10-29T02:46:49.306Z,982.5
2016-10-29T02:47:49.268Z,982.5
2016-10-29T02:48:49.231Z,982.49
2016-10-29T02:49:49.190Z,982.51
2016-10-29T02:50:49.152Z,982.5
2016-10-29T02:51:49.113Z,982.51
2016-10-29T02:52:49.073Z,982.52
2016-10-29T02:53:49.035Z,982.53
2016-10-29T02:54:49.000Z,982.49
2016-10-29T02:55:48.958Z,982.5
2016-10-29T02:56:48.920Z,982.54
2016-10-29T02:57:48.880Z,982.51
2016-10-29T02:58:48.848Z,982.47
2016-10-29T02:59:48.804Z,982.44
2016-10-29T03:00:48.764Z,982.52
2016-10-29T03:01:48.726Z,982.5
2016-10-29T03:02:48.688Z,982.55
2016-10-29T03:03:48.649Z,982.55
2016-10-29T03:04:48.611Z,982.51
2016-10-29T03:05:48.572Z,982.52
2016-10-29T03:06:48.532Z,982.51
2016-10-29T03:07:48.494Z,982.53
2016-10-29T03:08:48.459Z,982.52
2016-10-29T03:09:48.417Z,982.52
2016-10-29T03:10:48.378Z,982.54
2016-10-29T03:11:48.342Z,982.53
2016-10-29T03:12:48.302Z,982.53
2016-10-29T03:13:48.264Z,982.52
2016-10-29T03:14:48.225Z,982.53
2016-10-29T03:15:48.187Z,982.5
2016-10-29T03:16:48.149Z,982.54
2016-10-29T03:17:48.108Z,982.5
2016-10-29T03:18:48.070Z,982.53
2016-10-29T03:19:48.032Z,982.48
2016-10-29T03:20:47.993Z,982.47
2016-10-29T03:21:47.953Z,982.5
2016-10-29T03:22:47.915Z,982.48
2016-10-29T03:23:47.876Z,982.42
2016-10-29T03:24:47.837Z,982.46
2016-10-29T03:25:47.800Z,982.44
2016-10-29T03:26:47.762Z,982.46
2016-10-29T03:27:47.724Z,982.45
2016-10-29T03:28:47.683Z,982.39
2016-10-29T03:29:47.645Z,982.43
2016-10-29T03:30:47.608Z,982.44
2016-10-29T03:31:47.568Z,982.43
2016-10-29T03:32:47.532Z,982.45
2016-10-29T03:33:47.492Z,982.41
2016-10-29T03:34:47.453Z,982.39
2016-10-29T03:35:47.413Z,982.41
2016-10-29T03:36:47.374Z,982.4
2016-10-29T03:37:47.336Z,982.44
2016-10-29T03:38:47.296Z,982.43
2016-10-29T03:39:47.258Z,982.41
2016-10-29T03:40:47.219Z,982.45
2016-10-29T03:41:47.182Z,982.47
2016-10-29T03:42:47.143Z,982.44
2016-10-29T03:43:47.102Z,982.4
2016-10-29T03:44:47.064Z,982.42
2016-10-29T03:45:47.027Z,982.39
2016-10-29T03:46:46.986Z,982.45
2016-10-29T03:47:46.948Z,982.45
2016-10-29T03:48:46.911Z,982.42
2016-10-29T03:49:46.872Z,982.42
2016-10-29T03:50:46.832Z,982.45
2016-10-29T03:51:46.793Z,982.43
2016-10-29T03:52:46.755Z,982.4
2016-10-29T03:53:46.717Z,982.36
2016-10-29T03:54:46.676Z,982.38
2016-10-29T03:55:46.638Z,982.4
2016-10-29T03:56:46.600Z,982.4
2016-10-29T03:57:46.561Z,982.36
2016-10-29T03:58:46.521Z,982.4
2016-10-29T03:59:46.483Z,982.4
2016-10-29T04:00:46.446Z,982.4
2016-10-29T04:01:46.406Z,982.41
2016-10-29T04:02:46.368Z,982.39
2016-10-29T04:03:46.331Z,982.4
2016-10-29T04:04:46.291Z,982.45
2016-10-29T04:05:46.251Z,982.44
2016-10-29T04:06:46.213Z,982.46
2016-10-29T04:07:46.175Z,982.44
2016-10-29T04:08:46.134Z,982.44
2016-10-29T04:09:46.096Z,982.4
2016-10-29T04:10:46.057Z,982.38
2016-10-29T04:11:46.019Z,982.34
2016-10-29T04:12:45.979Z,982.38
2016-10-29T04:13:45.941Z,982.36
2016-10-29T04:14:45.903Z,982.33
2016-10-29T04:15:45.863Z,982.25
2016-10-29T04:16:45.824Z,982.27
2016-10-29T04:17:45.786Z,982.27
2016-10-29T04:18:45.747Z,982.26
2016-10-29T04:19:45.708Z,982.28
2016-10-29T04:20:45.671Z,982.23
2016-10-29T04:21:45.631Z,982.28
2016-10-29T04:22:45.592Z,982.34
2016-10-29T04:23:45.553Z,982.34
2016-10-29T04:24:45.515Z,982.36
2016-10-29T04:25:45.476Z,982.39
2016-10-29T04:26:45.437Z,982.39
2016-10-29T04:27:45.398Z,982.4
2016-10-29T04:28:45.361Z,982.46
2016-10-29T04:29:45.321Z,982.52
2016-10-29T04:30:45.283Z,982.49
2016-10-29T04:31:45.276Z,982.49
2016-10-29T04:32:45.204Z,982.54
2016-10-29T04:33:45.164Z,982.49
2016-10-29T04:34:45.126Z,982.52
2016-10-29T04:35:45.087Z,982.47
2016-10-29T04:36:45.049Z,982.48
2016-10-29T04:37:45.011Z,982.49
2016-10-29T04:38:44.972Z,982.41
2016-10-29T04:39:44.933Z,982.44
2016-10-29T04:40:44.895Z,982.43
2016-10-29T04:41:44.855Z,982.4
2016-10-29T04:42:44.815Z,982.41
2016-10-29T04:43:44.776Z,982.44
2016-10-29T04:44:44.737Z,982.42
2016-10-29T04:45:44.699Z,982.46
2016-10-29T04:46:44.661Z,982.46
2016-10-29T04:47:44.620Z,982.47
2016-10-29T04:48:44.585Z,982.44
2016-10-29T04:49:44.544Z,982.44
2016-10-29T04:50:44.504Z,982.41
2016-10-29T04:51:44.467Z,982.44
2016-10-29T04:52:44.427Z,982.41
2016-10-29T04:53:44.389Z,982.38
2016-10-29T04:54:44.348Z,982.43
2016-10-29T04:55:44.312Z,982.44
2016-10-29T04:56:44.270Z,982.41
2016-10-29T04:57:44.233Z,982.41
2016-10-29T04:58:44.193Z,982.38
2016-10-29T04:59:44.155Z,982.39
2016-10-29T05:00:44.116Z,982.34
2016-10-29T05:01:44.076Z,982.3
2016-10-29T05:02:44.038Z,982.32
2016-10-29T05:03:43.999Z,982.31
2016-10-29T05:04:43.961Z,982.31
2016-10-29T05:05:43.922Z,982.32
2016-10-29T05:06:43.886Z,982.36
2016-10-29T05:07:43.844Z,982.31
2016-10-29T05:08:43.804Z,982.32
2016-10-29T05:09:43.766Z,982.32
2016-10-29T05:10:43.728Z,982.32
2016-10-29T05:11:43.688Z,982.35
2016-10-29T05:12:43.651Z,982.35
2016-10-29T05:13:43.611Z,982.33
2016-10-29T05:14:43.572Z,982.35
2016-10-29T05:15:43.535Z,982.34
2016-10-29T05:16:43.494Z,982.34
2016-10-29T05:17:43.456Z,982.31
2016-10-29T05:18:43.417Z,982.37
2016-10-29T05:19:43.377Z,982.37
2016-10-29T05:20:43.340Z,982.36
2016-10-29T05:21:43.301Z,982.39
2016-10-29T05:22:43.260Z,982.44
2016-10-29T05:23:43.224Z,982.42
2016-10-29T05:24:43.184Z,982.4
2016-10-29T05:25:43.144Z,982.39
2016-10-29T05:26:43.106Z,982.38
2016-10-29T05:27:43.067Z,982.38
2016-10-29T05:28:43.031Z,982.34
2016-10-29T05:29:42.989Z,982.38
2016-10-29T05:30:42.952Z,982.35
2016-10-29T05:31:42.912Z,982.37
2016-10-29T05:32:42.873Z,982.37
2016-10-29T05:33:42.834Z,982.36
2016-10-29T05:34:42.797Z,982.36
2016-10-29T05:35:42.757Z,982.32
2016-10-29T05:36:42.717Z,982.33
2016-10-29T05:37:42.678Z,982.34
2016-10-29T05:38:42.640Z,982.32
2016-10-29T05:39:42.603Z,982.35
2016-10-29T05:40:42.562Z,982.32
2016-10-29T05:41:42.523Z,982.38
2016-10-29T05:42:42.483Z,982.33
2016-10-29T05:43:42.445Z,982.42
2016-10-29T05:44:42.407Z,982.44
2016-10-29T05:45:42.368Z,982.49
2016-10-29T05:46:42.328Z,982.5
2016-10-29T05:47:42.291Z,982.5
2016-10-29T05:48:42.252Z,982.53
2016-10-29T05:49:42.213Z,982.57
2016-10-29T05:50:42.173Z,982.55
2016-10-29T05:51:42.135Z,982.55
2016-10-29T05:52:42.096Z,982.58
2016-10-29T05:53:42.057Z,982.61
2016-10-29T05:54:42.018Z,982.62
2016-10-29T05:55:41.980Z,982.64
2016-10-29T05:56:41.941Z,982.62
2016-10-29T05:57:41.902Z,982.67
2016-10-29T05:58:41.864Z,982.69
2016-10-29T05:59:41.826Z,982.71
2016-10-29T06:00:41.785Z,982.71
2016-10-29T06:01:41.747Z,982.76
2016-10-29T06:02:41.708Z,982.71
2016-10-29T06:03:41.669Z,982.76
2016-10-29T06:04:41.630Z,982.75
2016-10-29T06:05:41.591Z,982.8
2016-10-29T06:06:41.553Z,982.81
2016-10-29T06:07:41.513Z,982.76
2016-10-29T06:08:41.479Z,982.76
2016-10-29T06:09:41.434Z,982.74
2016-10-29T06:10:41.397Z,982.72
2016-10-29T06:11:41.360Z,982.74
2016-10-29T06:12:41.320Z,982.77
2016-10-29T06:13:41.280Z,982.81
2016-10-29T06:14:41.252Z,982.77
2016-10-29T06:15:41.203Z,982.79
2016-10-29T06:16:41.164Z,982.8
2016-10-29T06:17:41.125Z,982.81
2016-10-29T06:18:41.086Z,982.8
2016-10-29T06:19:41.048Z,982.75
2016-10-29T06:20:41.008Z,982.76
2016-10-29T06:21:40.971Z,982.77
2016-10-29T06:22:40.932Z,982.79
2016-10-29T06:23:40.893Z,982.76
2016-10-29T06:24:40.855Z,982.83
2016-10-29T06:25:40.816Z,982.85
2016-10-29T06:26:40.777Z,982.84
2016-10-29T06:27:40.738Z,982.82
2016-10-29T06:28:40.701Z,982.84
2016-10-29T06:29:40.661Z,982.86
2016-10-29T06:30:40.622Z,982.86
2016-10-29T06:31:40.583Z,982.87
2016-10-29T06:32:40.545Z,982.87
2016-10-29T06:33:40.507Z,982.86
2016-10-29T06:34:40.466Z,982.84
2016-10-29T06:35:40.428Z,982.84
2016-10-29T06:36:40.389Z,982.86
2016-10-29T06:37:40.355Z,982.88
2016-10-29T06:38:40.313Z,982.88
2016-10-29T06:39:40.274Z,982.89
2016-10-29T06:40:40.234Z,982.9
2016-10-29T06:41:40.196Z,982.88
2016-10-29T06:42:40.157Z,982.89
2016-10-29T06:43:40.121Z,982.89
2016-10-29T06:44:40.079Z,982.89
2016-10-29T06:45:40.043Z,982.88
2016-10-29T06:46:40.006Z,982.87
2016-10-29T06:47:39.964Z,982.9
2016-10-29T06:48:39.926Z,982.89
2016-10-29T06:49:39.886Z,982.92
2016-10-29T06:50:39.849Z,982.92
2016-10-29T06:51:39.810Z,982.88
2016-10-29T06:52:39.770Z,982.87
2016-10-29T06:53:39.732Z,982.85
2016-10-29T06:54:39.694Z,982.86
2016-10-29T06:55:39.655Z,982.93
2016-10-29T06:56:39.615Z,982.89
2016-10-29T06:57:39.575Z,982.93
2016-10-29T06:58:39.539Z,982.92
2016-10-29T06:59:39.499Z,982.92
2016-10-29T07:00:39.460Z,982.95
2016-10-29T07:01:39.422Z,982.91
2016-10-29T07:02:39.382Z,982.92
2016-10-29T07:03:39.343Z,982.91
2016-10-29T07:04:39.304Z,982.92
2016-10-29T07:05:39.266Z,982.94
2016-10-29T07:06:39.227Z,982.93
2016-10-29T07:07:39.187Z,982.94
2016-10-29T07:08:39.148Z,982.96
2016-10-29T07:09:39.111Z,982.97
2016-10-29T07:10:39.073Z,982.98
2016-10-29T07:11:39.035Z,982.92
2016-10-29T07:12:38.996Z,982.96
2016-10-29T07:13:38.957Z,982.96
2016-10-29T07:14:38.919Z,982.95
2016-10-29T07:15:38.878Z,983.02
2016-10-29T07:16:38.841Z,982.99
2016-10-29T07:17:38.804Z,982.94
2016-10-29T07:18:38.764Z,982.94
2016-10-29T07:19:38.725Z,982.96
2016-10-29T07:20:38.690Z,982.93
2016-10-29T07:21:38.655Z,982.86
2016-10-29T07:22:38.612Z,982.88
2016-10-29T07:23:38.572Z,982.9
2016-10-29T07:24:38.535Z,982.91
2016-10-29T07:25:38.496Z,982.94
2016-10-29T07:26:38.458Z,982.91
2016-10-29T07:27:38.420Z,982.99
2016-10-29T07:28:38.381Z,982.96
2016-10-29T07:29:38.351Z,982.95
2016-10-29T07:30:38.305Z,982.97
2016-10-29T07:31:38.268Z,982.97
2016-10-29T07:32:38.229Z,982.94
2016-10-29T07:33:38.190Z,982.96
2016-10-29T07:34:38.151Z,982.92
2016-10-29T07:35:38.122Z,982.97
2016-10-29T07:36:38.076Z,982.98
2016-10-29T07:37:38.039Z,982.95
2016-10-29T07:38:38.000Z,982.94
2016-10-29T07:39:37.970Z,982.95
2016-10-29T07:40:37.926Z,982.96
2016-10-29T07:41:37.889Z,982.93
2016-10-29T07:42:37.850Z,982.94
2016-10-29T07:43:37.812Z,982.94
2016-10-29T07:44:37.774Z,982.89
2016-10-29T07:45:37.737Z,982.92
2016-10-29T07:46:37.700Z,982.9
2016-10-29T07:47:37.661Z,982.92
2016-10-29T07:48:37.623Z,982.92
2016-10-29T07:49:37.587Z,982.92
2016-10-29T07:50:37.549Z,982.94
2016-10-29T07:51:37.513Z,982.96
2016-10-29T07:52:37.473Z,982.96
2016-10-29T07:53:37.436Z,982.97
2016-10-29T07:54:37.399Z,982.93
2016-10-29T07:55:37.361Z,982.91
2016-10-29T07:56:37.326Z,982.94
2016-10-29T07:57:37.288Z,982.92
2016-10-29T07:58:37.249Z,982.95
2016-10-29T07:59:37.214Z,982.99
2016-10-29T08:00:37.176Z,982.96
2016-10-29T08:01:37.139Z,983.01
2016-10-29T08:02:37.100Z,982.94
2016-10-29T08:03:37.063Z,982.9
2016-10-29T08:04:37.029Z,982.93
2016-10-29T08:05:36.989Z,982.89
2016-10-29T08:06:36.953Z,982.91
2016-10-29T08:07:36.915Z,982.9
2016-10-29T08:08:36.878Z,982.91
2016-10-29T08:09:36.841Z,982.91
2016-10-29T08:10:36.802Z,982.89
2016-10-29T08:11:36.766Z,982.93
2016-10-29T08:12:36.730Z,982.9
2016-10-29T08:13:36.691Z,982.94
2016-10-29T08:14:36.656Z,982.92
2016-10-29T08:15:36.621Z,982.97
2016-10-29T08:16:36.582Z,982.9
2016-10-29T08:17:36.544Z,982.99
2016-10-29T08:18:36.507Z,982.95
2016-10-29T08:19:36.468Z,982.94
2016-10-29T08:20:36.434Z,982.92
2016-10-29T08:21:36.395Z,982.94
2016-10-29T08:22:36.358Z,982.95
2016-10-29T08:23:36.323Z,982.91
2016-10-29T08:24:36.284Z,982.92
2016-10-29T08:25:36.247Z,982.9
2016-10-29T08:26:36.211Z,982.92
2016-10-29T08:27:36.174Z,982.9
2016-10-29T08:28:36.137Z,982.91
2016-10-29T08:29:36.101Z,982.92
2016-10-29T08:30:36.065Z,982.99
2016-10-29T08:31:36.025Z,982.95
2016-10-29T08:32:35.987Z,982.94
2016-10-29T08:33:35.953Z,982.95
2016-10-29T08:34:35.915Z,982.95
2016-10-29T08:35:35.878Z,983.01
2016-10-29T08:36:35.843Z,982.94
2016-10-29T08:37:35.807Z,982.98
2016-10-29T08:38:35.769Z,982.96
2016-10-29T08:39:35.733Z,982.91
2016-10-29T08:40:35.697Z,982.94
2016-10-29T08:41:35.659Z,982.96
2016-10-29T08:42:35.621Z,982.95
2016-10-29T08:43:35.592Z,983
2016-10-29T08:44:35.549Z,982.98
2016-10-29T08:45:35.515Z,982.95
2016-10-29T08:46:35.477Z,982.96
2016-10-29T08:47:35.440Z,982.95
2016-10-29T08:48:35.405Z,982.95
2016-10-29T08:49:35.367Z,982.98
2016-10-29T08:50:35.331Z,983.04
2016-10-29T08:51:35.294Z,983.03
2016-10-29T08:52:35.259Z,983.04
2016-10-29T08:53:35.223Z,983.07
2016-10-29T08:54:35.187Z,983.06
2016-10-29T08:55:35.152Z,983.01
2016-10-29T08:56:35.116Z,982.96
2016-10-29T08:57:35.078Z,983
2016-10-29T08:58:35.043Z,982.93
2016-10-29T08:59:35.007Z,982.9
2016-10-29T09:00:34.973Z,982.87
2016-10-29T09:01:34.935Z,982.88
2016-10-29T09:02:34.900Z,982.88
2016-10-29T09:03:34.865Z,982.85
2016-10-29T09:04:34.829Z,982.86
2016-10-29T09:05:34.794Z,982.92
2016-10-29T09:06:34.758Z,982.92
2016-10-29T09:07:34.723Z,982.93
2016-10-29T09:08:34.687Z,982.98
2016-10-29T09:09:34.652Z,982.91
2016-10-29T09:10:34.617Z,982.92
2016-10-29T09:11:34.605Z,982.88
2016-10-29T09:12:34.546Z,982.84
2016-10-29T09:13:34.520Z,982.83
2016-10-29T09:14:34.476Z,982.8
2016-10-29T09:15:34.438Z,982.79
2016-10-29T09:16:34.405Z,982.81
2016-10-29T09:17:34.370Z,982.79
2016-10-29T09:18:34.333Z,982.81
2016-10-29T09:19:34.300Z,982.92
2016-10-29T09:20:34.263Z,982.93
2016-10-29T09:21:34.227Z,982.94
2016-10-29T09:22:34.192Z,982.94
2016-10-29T09:23:34.156Z,982.93
2016-10-29T09:24:34.119Z,982.97
2016-10-29T09:25:34.084Z,982.93
2016-10-29T09:26:34.049Z,982.94
2016-10-29T09:27:34.011Z,982.93
2016-10-29T09:28:33.977Z,982.97
2016-10-29T09:29:33.943Z,982.98
2016-10-29T09:30:33.906Z,983
2016-10-29T09:31:33.885Z,982.99
2016-10-29T09:32:33.835Z,982.95
2016-10-29T09:33:33.800Z,982.94
2016-10-29T09:34:33.764Z,983
2016-10-29T09:35:33.728Z,982.97
2016-10-29T09:36:33.694Z,983
2016-10-29T09:37:33.655Z,983
2016-10-29T09:38:33.622Z,983.06
2016-10-29T09:39:33.587Z,983.04
2016-10-29T09:40:33.550Z,983.06
2016-10-29T09:41:33.513Z,983.04
2016-10-29T09:42:33.479Z,983.05
2016-10-29T09:43:33.444Z,983.03
2016-10-29T09:44:33.407Z,983.04
2016-10-29T09:45:33.372Z,983.01
2016-10-29T09:46:33.336Z,983.06
2016-10-29T09:47:33.301Z,983.06
2016-10-29T09:48:33.264Z,983.04
2016-10-29T09:49:33.229Z,983.03
2016-10-29T09:50:33.194Z,983.02
2016-10-29T09:51:33.157Z,983
2016-10-29T09:52:33.123Z,983
2016-10-29T09:53:33.086Z,982.92
2016-10-29T09:54:33.050Z,982.94
2016-10-29T09:55:33.013Z,982.9
2016-10-29T09:56:32.978Z,982.87
2016-10-29T09:57:32.942Z,982.87
2016-10-29T09:58:32.909Z,982.84
2016-10-29T09:59:32.871Z,982.85
2016-10-29T10:00:32.836Z,982.85
2016-10-29T10:01:32.806Z,982.86
2016-10-29T10:02:32.765Z,982.85
2016-10-29T10:03:32.728Z,982.86
2016-10-29T10:04:32.692Z,982.83
2016-10-29T10:05:32.657Z,982.82
2016-10-29T10:06:32.621Z,982.82
2016-10-29T10:07:32.586Z,982.79
2016-10-29T10:08:32.552Z,982.81
2016-10-29T10:09:32.516Z,982.83
2016-10-29T10:10:32.478Z,982.84
2016-10-29T10:11:32.444Z,982.84
2016-10-29T10:12:32.408Z,982.83
2016-10-29T10:13:32.372Z,982.81
2016-10-29T10:14:32.335Z,982.8
2016-10-29T10:15:32.300Z,982.82
2016-10-29T10:16:32.264Z,982.79
2016-10-29T10:17:32.231Z,982.82
2016-10-29T10:18:32.203Z,982.77
2016-10-29T10:19:32.161Z,982.82
2016-10-29T10:20:32.123Z,982.83
2016-10-29T10:21:32.087Z,982.81
2016-10-29T10:22:32.051Z,982.8
2016-10-29T10:23:32.015Z,982.81
2016-10-29T10:24:31.979Z,982.76
2016-10-29T10:25:31.944Z,982.76
2016-10-29T10:26:31.905Z,982.72
2016-10-29T10:27:31.872Z,982.7
2016-10-29T10:28:31.834Z,982.71
2016-10-29T10:29:31.799Z,982.77
2016-10-29T10:30:31.764Z,982.73
2016-10-29T10:31:31.729Z,982.77
2016-10-29T10:32:31.692Z,982.75
2016-10-29T10:33:31.657Z,982.77
2016-10-29T10:34:31.622Z,982.76
2016-10-29T10:35:31.584Z,982.8
2016-10-29T10:36:31.548Z,982.79
2016-10-29T10:37:31.513Z,982.8
2016-10-29T10:38:31.477Z,982.76
2016-10-29T10:39:31.439Z,982.76
2016-10-29T10:40:31.404Z,982.71
2016-10-29T10:41:31.368Z,982.7
2016-10-29T10:42:31.332Z,982.61
2016-10-29T10:43:31.296Z,982.6
2016-10-29T10:44:31.261Z,982.55
2016-10-29T10:45:31.226Z,982.58
2016-10-29T10:46:31.189Z,982.53
2016-10-29T10:47:31.153Z,982.52
2016-10-29T10:48:31.116Z,982.51
2016-10-29T10:49:31.081Z,982.54
2016-10-29T10:50:31.044Z,982.45
2016-10-29T10:51:31.011Z,982.43
2016-10-29T10:52:30.974Z,982.44
2016-10-29T10:53:30.938Z,982.41
2016-10-29T10:54:30.902Z,982.43
2016-10-29T10:55:30.867Z,982.39
2016-10-29T10:56:30.832Z,982.36
2016-10-29T10:57:30.796Z,982.36
2016-10-29T10:58:30.757Z,982.39
2016-10-29T10:59:30.722Z,982.4
2016-10-29T11:00:30.687Z,982.38
2016-10-29T11:01:30.651Z,982.36
2016-10-29T11:02:30.615Z,982.41
2016-10-29T11:03:30.579Z,982.38
2016-10-29T11:04:30.544Z,982.38
2016-10-29T11:05:30.510Z,982.43
2016-10-29T11:06:30.472Z,982.41
2016-10-29T11:07:30.437Z,982.38
2016-10-29T11:08:30.401Z,982.34
2016-10-29T11:09:30.366Z,982.27
2016-10-29T11:10:30.331Z,982.24
2016-10-29T11:11:30.298Z,982.23
2016-10-29T11:12:30.259Z,982.2
2016-10-29T11:13:30.221Z,982.24
2016-10-29T11:14:30.188Z,982.19
2016-10-29T11:15:30.154Z,982.22
2016-10-29T11:16:30.117Z,982.18
2016-10-29T11:17:30.079Z,982.16
2016-10-29T11:18:30.050Z,982.16
2016-10-29T11:19:30.010Z,982.11
2016-10-29T11:20:29.975Z,982.15
2016-10-29T11:21:29.938Z,982.08
2016-10-29T11:22:29.904Z,982.07
2016-10-29T11:23:29.870Z,982.03
2016-10-29T11:24:29.833Z,982.02
2016-10-29T11:25:29.799Z,981.98
2016-10-29T11:26:29.761Z,981.96
2016-10-29T11:27:29.727Z,981.9
2016-10-29T11:28:29.690Z,981.91
2016-10-29T11:29:29.657Z,981.94
2016-10-29T11:30:29.618Z,981.96
2016-10-29T11:31:29.586Z,981.94
2016-10-29T11:32:29.549Z,981.93
2016-10-29T11:33:29.514Z,981.95
2016-10-29T11:34:29.480Z,981.94
2016-10-29T11:35:29.444Z,981.93
2016-10-29T11:36:29.408Z,981.92
2016-10-29T11:37:29.374Z,981.93
2016-10-29T11:38:29.338Z,981.93
2016-10-29T11:39:29.302Z,981.93
2016-10-29T11:40:29.270Z,981.89
2016-10-29T11:41:29.239Z,981.91
2016-10-29T11:42:29.197Z,981.89
2016-10-29T11:43:29.162Z,981.91
2016-10-29T11:44:29.127Z,981.85
2016-10-29T11:45:29.092Z,981.88
2016-10-29T11:46:29.057Z,981.83
2016-10-29T11:47:29.022Z,981.82
2016-10-29T11:48:28.988Z,981.84
2016-10-29T11:49:28.951Z,981.83
2016-10-29T11:50:28.916Z,981.8
2016-10-29T11:51:28.881Z,981.81
2016-10-29T11:52:28.847Z,981.79
2016-10-29T11:53:28.811Z,981.79
2016-10-29T11:54:28.776Z,981.79
2016-10-29T11:55:28.741Z,981.77
2016-10-29T11:56:28.706Z,981.74
2016-10-29T11:57:28.670Z,981.71
2016-10-29T11:58:28.636Z,981.72
2016-10-29T11:59:28.603Z,981.7
2016-10-29T12:00:28.566Z,981.7
2016-10-29T12:01:28.531Z,981.69
2016-10-29T12:02:28.496Z,981.68
2016-10-29T12:03:28.461Z,981.67
2016-10-29T12:04:28.424Z,981.67
2016-10-29T12:05:28.390Z,981.64
2016-10-29T12:06:28.355Z,981.68
2016-10-29T12:07:28.319Z,981.65
2016-10-29T12:08:28.288Z,981.67
2016-10-29T12:09:28.252Z,981.59
2016-10-29T12:10:28.216Z,981.59
2016-10-29T12:11:28.180Z,981.58
2016-10-29T12:12:28.144Z,981.54
2016-10-29T12:13:28.110Z,981.58
2016-10-29T12:14:28.073Z,981.6
2016-10-29T12:15:28.039Z,981.53
2016-10-29T12:16:28.007Z,981.5
2016-10-29T12:17:27.970Z,981.47
2016-10-29T12:18:27.935Z,981.4
2016-10-29T12:19:27.898Z,981.43
2016-10-29T12:20:27.863Z,981.44
2016-10-29T12:21:27.829Z,981.38
2016-10-29T12:22:27.793Z,981.36
2016-10-29T12:23:27.758Z,981.33
2016-10-29T12:24:27.723Z,981.34
2016-10-29T12:25:27.687Z,981.34
2016-10-29T12:26:27.653Z,981.34
2016-10-29T12:27:27.618Z,981.29
2016-10-29T12:28:27.583Z,981.3
2016-10-29T12:29:27.548Z,981.32
2016-10-29T12:30:27.512Z,981.28
2016-10-29T12:31:27.479Z,981.32